sensor_id;sensor_type;location;lat;lon;timestamp;temperature;humidity
57434;DHT22;43277;52.672;6.984;2024-03-08T00:01:53;1.90;99.90
57434;DHT22;43277;52.672;6.984;2024-03-08T00:04:19;1.90;99.90
57434;DHT22;43277;52.672;6.984;2024-03-08T00:06:44;1.80;99.90
57434;DHT22;43277;52.672;6.984;2024-03-08T00:09:12;1.80;99.90
57434;DHT22;43277;52.672;6.984;2024-03-08T00:11:37;1.80;99.90
57434;DHT22;43277;52.672;6.984;2024-03-08T00:14:03;1.80;99.90
57434;DHT22;43277;52.672;6.984;2024-03-08T00:16:32;1.80;99.90
57434;DHT22;43277;52.672;6.984;2024-03-08T00:18:58;1.70;99.90
57434;DHT22;43277;52.672;6.984;2024-03-08T00:21:24;1.70;99.90
57434;DHT22;43277;52.672;6.984;2024-03-08T00:23:49;1.70;99.90
57434;DHT22;43277;52.672;6.984;2024-03-08T00:26:15;1.70;99.90
57434;DHT22;43277;52.672;6.984;2024-03-08T00:28:41;1.80;99.90
57434;DHT22;43277;52.672;6.984;2024-03-08T00:31:06;1.70;99.90
57434;DHT22;43277;52.672;6.984;2024-03-08T00:33:32;1.70;99.90
57434;DHT22;43277;52.672;6.984;2024-03-08T00:35:58;1.70;99.90
57434;DHT22;43277;52.672;6.984;2024-03-08T00:38:24;1.70;99.90
57434;DHT22;43277;52.672;6.984;2024-03-08T00:40:49;1.70;99.90
57434;DHT22;43277;52.672;6.984;2024-03-08T00:43:15;1.70;99.90
57434;DHT22;43277;52.672;6.984;2024-03-08T00:45:41;1.70;99.90
57434;DHT22;43277;52.672;6.984;2024-03-08T00:48:09;1.60;99.90
57434;DHT22;43277;52.672;6.984;2024-03-08T00:50:36;1.60;99.90
57434;DHT22;43277;52.672;6.984;2024-03-08T00:53:02;1.60;99.90
57434;DHT22;43277;52.672;6.984;2024-03-08T00:55:27;1.60;99.90
57434;DHT22;43277;52.672;6.984;2024-03-08T00:57:55;1.60;99.90
57434;DHT22;43277;52.672;6.984;2024-03-08T01:00:20;1.50;99.90
57434;DHT22;43277;52.672;6.984;2024-03-08T01:02:47;1.50;99.90
57434;DHT22;43277;52.672;6.984;2024-03-08T01:05:13;1.50;99.90
57434;DHT22;43277;52.672;6.984;2024-03-08T01:07:38;1.50;99.90
57434;DHT22;43277;52.672;6.984;2024-03-08T01:10:04;1.50;99.90
57434;DHT22;43277;52.672;6.984;2024-03-08T01:12:35;1.50;99.90
57434;DHT22;43277;52.672;6.984;2024-03-08T01:15:00;1.40;99.90
57434;DHT22;43277;52.672;6.984;2024-03-08T01:17:26;1.40;99.90
57434;DHT22;43277;52.672;6.984;2024-03-08T01:19:52;1.40;99.90
57434;DHT22;43277;52.672;6.984;2024-03-08T01:22:19;1.40;99.90
57434;DHT22;43277;52.672;6.984;2024-03-08T01:24:44;1.40;99.90
57434;DHT22;43277;52.672;6.984;2024-03-08T01:27:10;1.30;99.90
57434;DHT22;43277;52.672;6.984;2024-03-08T01:29:37;1.30;99.90
57434;DHT22;43277;52.672;6.984;2024-03-08T01:32:03;1.30;99.90
57434;DHT22;43277;52.672;6.984;2024-03-08T01:34:29;1.30;99.90
57434;DHT22;43277;52.672;6.984;2024-03-08T01:36:54;1.30;99.90
57434;DHT22;43277;52.672;6.984;2024-03-08T01:39:23;1.30;99.90
57434;DHT22;43277;52.672;6.984;2024-03-08T01:41:49;1.30;99.90
57434;DHT22;43277;52.672;6.984;2024-03-08T01:44:15;1.20;99.90
57434;DHT22;43277;52.672;6.984;2024-03-08T01:46:44;1.20;99.90
57434;DHT22;43277;52.672;6.984;2024-03-08T01:49:11;1.20;99.90
57434;DHT22;43277;52.672;6.984;2024-03-08T01:51:38;1.20;99.90
57434;DHT22;43277;52.672;6.984;2024-03-08T01:54:05;1.20;99.90
57434;DHT22;43277;52.672;6.984;2024-03-08T01:56:32;1.20;99.90
57434;DHT22;43277;52.672;6.984;2024-03-08T01:58:59;1.20;99.90
57434;DHT22;43277;52.672;6.984;2024-03-08T02:01:25;1.10;99.90
57434;DHT22;43277;52.672;6.984;2024-03-08T02:03:50;1.10;99.90
57434;DHT22;43277;52.672;6.984;2024-03-08T02:06:16;1.10;99.90
57434;DHT22;43277;52.672;6.984;2024-03-08T02:08:46;1.10;99.90
57434;DHT22;43277;52.672;6.984;2024-03-08T02:11:12;1.10;99.90
57434;DHT22;43277;52.672;6.984;2024-03-08T02:13:37;1.00;99.90
57434;DHT22;43277;52.672;6.984;2024-03-08T02:16:03;1.00;99.90
57434;DHT22;43277;52.672;6.984;2024-03-08T02:18:31;1.00;99.90
57434;DHT22;43277;52.672;6.984;2024-03-08T02:21:04;1.00;99.90
57434;DHT22;43277;52.672;6.984;2024-03-08T02:23:29;1.00;99.90
57434;DHT22;43277;52.672;6.984;2024-03-08T02:25:56;1.00;99.90
57434;DHT22;43277;52.672;6.984;2024-03-08T02:28:22;1.00;99.90
57434;DHT22;43277;52.672;6.984;2024-03-08T02:30:49;0.90;99.90
57434;DHT22;43277;52.672;6.984;2024-03-08T02:33:16;0.90;99.90
57434;DHT22;43277;52.672;6.984;2024-03-08T02:35:43;0.90;99.90
57434;DHT22;43277;52.672;6.984;2024-03-08T02:38:15;0.90;99.90
57434;DHT22;43277;52.672;6.984;2024-03-08T02:40:42;0.90;99.90
57434;DHT22;43277;52.672;6.984;2024-03-08T02:43:09;0.90;99.90
57434;DHT22;43277;52.672;6.984;2024-03-08T02:45:35;0.90;99.90
57434;DHT22;43277;52.672;6.984;2024-03-08T02:48:00;0.90;99.90
57434;DHT22;43277;52.672;6.984;2024-03-08T02:50:26;0.80;99.90
57434;DHT22;43277;52.672;6.984;2024-03-08T02:52:52;0.80;99.90
57434;DHT22;43277;52.672;6.984;2024-03-08T02:55:17;0.80;99.90
57434;DHT22;43277;52.672;6.984;2024-03-08T02:57:43;0.80;99.90
57434;DHT22;43277;52.672;6.984;2024-03-08T03:00:13;0.80;99.90
57434;DHT22;43277;52.672;6.984;2024-03-08T03:02:39;0.80;99.90
57434;DHT22;43277;52.672;6.984;2024-03-08T03:05:05;0.80;99.90
57434;DHT22;43277;52.672;6.984;2024-03-08T03:07:32;0.80;99.90
57434;DHT22;43277;52.672;6.984;2024-03-08T03:09:59;0.80;99.90
57434;DHT22;43277;52.672;6.984;2024-03-08T03:12:27;0.80;99.90
57434;DHT22;43277;52.672;6.984;2024-03-08T03:14:53;0.80;99.90
57434;DHT22;43277;52.672;6.984;2024-03-08T03:17:18;0.80;99.90
57434;DHT22;43277;52.672;6.984;2024-03-08T03:19:45;0.80;99.90
57434;DHT22;43277;52.672;6.984;2024-03-08T03:22:12;0.80;99.90
57434;DHT22;43277;52.672;6.984;2024-03-08T03:24:38;0.80;99.90
57434;DHT22;43277;52.672;6.984;2024-03-08T03:27:04;0.80;99.90
57434;DHT22;43277;52.672;6.984;2024-03-08T03:29:40;0.80;99.90
57434;DHT22;43277;52.672;6.984;2024-03-08T03:32:08;0.80;99.90
57434;DHT22;43277;52.672;6.984;2024-03-08T03:34:34;0.80;99.90
57434;DHT22;43277;52.672;6.984;2024-03-08T03:37:03;0.80;99.90
57434;DHT22;43277;52.672;6.984;2024-03-08T03:39:29;0.80;99.90
57434;DHT22;43277;52.672;6.984;2024-03-08T03:41:58;0.80;99.90
57434;DHT22;43277;52.672;6.984;2024-03-08T03:44:24;0.80;99.90
57434;DHT22;43277;52.672;6.984;2024-03-08T03:46:49;0.80;99.90
57434;DHT22;43277;52.672;6.984;2024-03-08T03:49:18;0.80;99.90
57434;DHT22;43277;52.672;6.984;2024-03-08T03:51:43;0.70;99.90
57434;DHT22;43277;52.672;6.984;2024-03-08T03:54:10;0.70;99.90
57434;DHT22;43277;52.672;6.984;2024-03-08T03:56:36;0.70;99.90
57434;DHT22;43277;52.672;6.984;2024-03-08T03:59:01;0.70;99.90
57434;DHT22;43277;52.672;6.984;2024-03-08T04:01:27;0.80;99.90
57434;DHT22;43277;52.672;6.984;2024-03-08T04:03:53;0.80;99.90
57434;DHT22;43277;52.672;6.984;2024-03-08T04:06:18;0.80;99.90
57434;DHT22;43277;52.672;6.984;2024-03-08T04:08:44;0.80;99.90
57434;DHT22;43277;52.672;6.984;2024-03-08T04:11:09;0.80;99.90
57434;DHT22;43277;52.672;6.984;2024-03-08T04:13:36;0.80;99.90
57434;DHT22;43277;52.672;6.984;2024-03-08T04:16:02;0.80;99.90
57434;DHT22;43277;52.672;6.984;2024-03-08T04:18:28;0.80;99.90
57434;DHT22;43277;52.672;6.984;2024-03-08T04:20:53;0.80;99.90
57434;DHT22;43277;52.672;6.984;2024-03-08T04:23:19;0.80;99.90
57434;DHT22;43277;52.672;6.984;2024-03-08T04:25:45;0.80;99.90
57434;DHT22;43277;52.672;6.984;2024-03-08T04:28:10;0.70;99.90
57434;DHT22;43277;52.672;6.984;2024-03-08T04:30:38;0.70;99.90
57434;DHT22;43277;52.672;6.984;2024-03-08T04:33:04;0.70;99.90
57434;DHT22;43277;52.672;6.984;2024-03-08T04:35:30;0.70;99.90
57434;DHT22;43277;52.672;6.984;2024-03-08T04:37:56;0.70;99.90
57434;DHT22;43277;52.672;6.984;2024-03-08T04:40:23;0.70;99.90
57434;DHT22;43277;52.672;6.984;2024-03-08T04:42:48;0.70;99.90
57434;DHT22;43277;52.672;6.984;2024-03-08T04:45:17;0.60;99.90
57434;DHT22;43277;52.672;6.984;2024-03-08T04:47:43;0.60;99.90
57434;DHT22;43277;52.672;6.984;2024-03-08T04:50:09;0.60;99.90
57434;DHT22;43277;52.672;6.984;2024-03-08T04:52:35;0.60;99.90
57434;DHT22;43277;52.672;6.984;2024-03-08T04:55:01;0.60;99.90
57434;DHT22;43277;52.672;6.984;2024-03-08T04:57:29;0.60;99.90
57434;DHT22;43277;52.672;6.984;2024-03-08T04:59:55;0.60;99.90
57434;DHT22;43277;52.672;6.984;2024-03-08T05:02:21;0.60;99.90
57434;DHT22;43277;52.672;6.984;2024-03-08T05:04:48;0.50;99.90
57434;DHT22;43277;52.672;6.984;2024-03-08T05:07:13;0.50;99.90
57434;DHT22;43277;52.672;6.984;2024-03-08T05:09:39;0.50;99.90
57434;DHT22;43277;52.672;6.984;2024-03-08T05:12:06;0.50;99.90
57434;DHT22;43277;52.672;6.984;2024-03-08T05:14:33;0.50;99.90
57434;DHT22;43277;52.672;6.984;2024-03-08T05:17:00;0.50;99.90
57434;DHT22;43277;52.672;6.984;2024-03-08T05:19:26;0.50;99.90
57434;DHT22;43277;52.672;6.984;2024-03-08T05:21:52;0.50;99.90
57434;DHT22;43277;52.672;6.984;2024-03-08T05:24:18;0.50;99.90
57434;DHT22;43277;52.672;6.984;2024-03-08T05:26:44;0.50;99.90
57434;DHT22;43277;52.672;6.984;2024-03-08T05:29:10;0.50;99.90
57434;DHT22;43277;52.672;6.984;2024-03-08T05:31:46;0.40;99.90
57434;DHT22;43277;52.672;6.984;2024-03-08T05:34:13;0.40;99.90
57434;DHT22;43277;52.672;6.984;2024-03-08T05:36:43;0.40;99.90
57434;DHT22;43277;52.672;6.984;2024-03-08T05:39:12;0.40;99.90
57434;DHT22;43277;52.672;6.984;2024-03-08T05:41:39;0.40;99.90
57434;DHT22;43277;52.672;6.984;2024-03-08T05:44:05;0.30;99.90
57434;DHT22;43277;52.672;6.984;2024-03-08T05:46:31;0.30;99.90
57434;DHT22;43277;52.672;6.984;2024-03-08T05:48:57;0.30;99.90
57434;DHT22;43277;52.672;6.984;2024-03-08T05:51:25;0.30;99.90
57434;DHT22;43277;52.672;6.984;2024-03-08T05:53:53;0.20;99.90
57434;DHT22;43277;52.672;6.984;2024-03-08T05:56:19;0.20;99.90
57434;DHT22;43277;52.672;6.984;2024-03-08T05:58:45;0.20;99.90
57434;DHT22;43277;52.672;6.984;2024-03-08T06:01:11;0.30;99.90
57434;DHT22;43277;52.672;6.984;2024-03-08T06:03:38;0.20;99.90
57434;DHT22;43277;52.672;6.984;2024-03-08T06:06:13;0.20;99.90
57434;DHT22;43277;52.672;6.984;2024-03-08T06:08:39;0.20;99.90
57434;DHT22;43277;52.672;6.984;2024-03-08T06:11:05;0.20;99.90
57434;DHT22;43277;52.672;6.984;2024-03-08T06:13:34;0.20;99.90
57434;DHT22;43277;52.672;6.984;2024-03-08T06:16:01;0.20;99.90
57434;DHT22;43277;52.672;6.984;2024-03-08T06:18:30;0.20;99.90
57434;DHT22;43277;52.672;6.984;2024-03-08T06:20:55;0.10;99.90
57434;DHT22;43277;52.672;6.984;2024-03-08T06:23:22;0.10;99.90
57434;DHT22;43277;52.672;6.984;2024-03-08T06:25:47;0.20;99.90
57434;DHT22;43277;52.672;6.984;2024-03-08T06:28:13;0.20;99.90
57434;DHT22;43277;52.672;6.984;2024-03-08T06:30:40;0.20;99.90
57434;DHT22;43277;52.672;6.984;2024-03-08T06:33:05;0.20;99.90
57434;DHT22;43277;52.672;6.984;2024-03-08T06:35:32;0.20;99.90
57434;DHT22;43277;52.672;6.984;2024-03-08T06:37:58;0.30;99.90
57434;DHT22;43277;52.672;6.984;2024-03-08T06:40:24;0.30;99.90
57434;DHT22;43277;52.672;6.984;2024-03-08T06:42:49;0.30;99.90
57434;DHT22;43277;52.672;6.984;2024-03-08T06:45:17;0.30;99.90
57434;DHT22;43277;52.672;6.984;2024-03-08T06:47:46;0.40;99.90
57434;DHT22;43277;52.672;6.984;2024-03-08T06:50:12;0.40;99.90
57434;DHT22;43277;52.672;6.984;2024-03-08T06:52:38;0.40;99.90
57434;DHT22;43277;52.672;6.984;2024-03-08T06:55:04;0.50;99.90
57434;DHT22;43277;52.672;6.984;2024-03-08T06:57:31;0.50;99.90
57434;DHT22;43277;52.672;6.984;2024-03-08T06:59:57;0.50;99.90
57434;DHT22;43277;52.672;6.984;2024-03-08T07:02:23;0.60;99.90
57434;DHT22;43277;52.672;6.984;2024-03-08T07:04:52;0.60;99.90
57434;DHT22;43277;52.672;6.984;2024-03-08T07:07:18;0.70;99.90
57434;DHT22;43277;52.672;6.984;2024-03-08T07:09:46;0.80;99.90
57434;DHT22;43277;52.672;6.984;2024-03-08T07:12:12;0.80;99.90
57434;DHT22;43277;52.672;6.984;2024-03-08T07:14:39;0.90;99.90
57434;DHT22;43277;52.672;6.984;2024-03-08T07:17:09;0.90;99.90
57434;DHT22;43277;52.672;6.984;2024-03-08T07:19:34;1.00;99.90
57434;DHT22;43277;52.672;6.984;2024-03-08T07:22:00;1.10;99.90
57434;DHT22;43277;52.672;6.984;2024-03-08T07:24:29;1.10;99.90
57434;DHT22;43277;52.672;6.984;2024-03-08T07:27:20;1.10;99.90
57434;DHT22;43277;52.672;6.984;2024-03-08T07:29:46;1.20;99.90
57434;DHT22;43277;52.672;6.984;2024-03-08T07:32:11;1.30;99.90
57434;DHT22;43277;52.672;6.984;2024-03-08T07:34:58;1.30;99.90
57434;DHT22;43277;52.672;6.984;2024-03-08T07:37:24;1.40;99.90
57434;DHT22;43277;52.672;6.984;2024-03-08T07:39:49;1.40;99.90
57434;DHT22;43277;52.672;6.984;2024-03-08T07:42:15;1.50;99.90
57434;DHT22;43277;52.672;6.984;2024-03-08T07:44:42;1.60;99.90
57434;DHT22;43277;52.672;6.984;2024-03-08T07:47:08;1.70;99.90
57434;DHT22;43277;52.672;6.984;2024-03-08T07:49:35;1.80;99.90
57434;DHT22;43277;52.672;6.984;2024-03-08T07:52:06;1.80;99.90
57434;DHT22;43277;52.672;6.984;2024-03-08T07:54:33;1.90;99.90
57434;DHT22;43277;52.672;6.984;2024-03-08T07:57:00;2.00;99.90
57434;DHT22;43277;52.672;6.984;2024-03-08T07:59:28;2.00;99.90
57434;DHT22;43277;52.672;6.984;2024-03-08T08:01:54;2.10;99.90
57434;DHT22;43277;52.672;6.984;2024-03-08T08:04:20;2.30;99.90
57434;DHT22;43277;52.672;6.984;2024-03-08T08:06:50;2.30;99.90
57434;DHT22;43277;52.672;6.984;2024-03-08T08:09:16;2.40;99.90
57434;DHT22;43277;52.672;6.984;2024-03-08T08:11:54;2.40;99.90
57434;DHT22;43277;52.672;6.984;2024-03-08T08:14:19;2.50;99.90
57434;DHT22;43277;52.672;6.984;2024-03-08T08:16:46;2.60;99.90
57434;DHT22;43277;52.672;6.984;2024-03-08T08:19:14;2.70;99.90
57434;DHT22;43277;52.672;6.984;2024-03-08T08:21:41;2.70;99.90
57434;DHT22;43277;52.672;6.984;2024-03-08T08:24:06;2.70;99.90
57434;DHT22;43277;52.672;6.984;2024-03-08T08:26:32;2.80;99.90
57434;DHT22;43277;52.672;6.984;2024-03-08T08:28:59;2.80;99.90
57434;DHT22;43277;52.672;6.984;2024-03-08T08:31:25;2.90;99.90
57434;DHT22;43277;52.672;6.984;2024-03-08T08:33:51;3.00;99.90
57434;DHT22;43277;52.672;6.984;2024-03-08T08:36:26;3.00;99.90
57434;DHT22;43277;52.672;6.984;2024-03-08T08:38:52;3.10;99.90
57434;DHT22;43277;52.672;6.984;2024-03-08T08:41:21;3.20;99.90
57434;DHT22;43277;52.672;6.984;2024-03-08T08:43:47;3.30;99.90
57434;DHT22;43277;52.672;6.984;2024-03-08T08:46:17;3.30;99.90
57434;DHT22;43277;52.672;6.984;2024-03-08T08:48:42;3.40;99.90
57434;DHT22;43277;52.672;6.984;2024-03-08T08:51:10;3.40;99.90
57434;DHT22;43277;52.672;6.984;2024-03-08T08:53:38;3.50;99.90
57434;DHT22;43277;52.672;6.984;2024-03-08T08:56:06;3.60;99.90
57434;DHT22;43277;52.672;6.984;2024-03-08T08:58:33;3.60;99.90
57434;DHT22;43277;52.672;6.984;2024-03-08T09:00:59;3.70;99.90
57434;DHT22;43277;52.672;6.984;2024-03-08T09:03:25;3.80;99.90
57434;DHT22;43277;52.672;6.984;2024-03-08T09:05:52;3.80;99.90
57434;DHT22;43277;52.672;6.984;2024-03-08T09:08:18;3.90;99.90
57434;DHT22;43277;52.672;6.984;2024-03-08T09:10:43;3.90;99.90
57434;DHT22;43277;52.672;6.984;2024-03-08T09:13:09;4.00;99.90
57434;DHT22;43277;52.672;6.984;2024-03-08T09:15:37;4.00;99.90
57434;DHT22;43277;52.672;6.984;2024-03-08T09:18:06;4.00;99.90
57434;DHT22;43277;52.672;6.984;2024-03-08T09:20:31;4.20;99.90
57434;DHT22;43277;52.672;6.984;2024-03-08T09:22:57;4.20;99.90
57434;DHT22;43277;52.672;6.984;2024-03-08T09:25:23;4.30;99.90
57434;DHT22;43277;52.672;6.984;2024-03-08T09:27:49;4.40;99.90
57434;DHT22;43277;52.672;6.984;2024-03-08T09:30:15;4.60;99.90
57434;DHT22;43277;52.672;6.984;2024-03-08T09:32:41;4.60;99.90
57434;DHT22;43277;52.672;6.984;2024-03-08T09:35:08;4.70;99.90
57434;DHT22;43277;52.672;6.984;2024-03-08T09:37:34;4.90;99.90
57434;DHT22;43277;52.672;6.984;2024-03-08T09:40:00;5.00;99.90
57434;DHT22;43277;52.672;6.984;2024-03-08T09:42:30;5.10;99.90
57434;DHT22;43277;52.672;6.984;2024-03-08T09:44:57;5.30;99.90
57434;DHT22;43277;52.672;6.984;2024-03-08T09:47:25;5.40;99.90
57434;DHT22;43277;52.672;6.984;2024-03-08T09:49:54;5.40;99.90
57434;DHT22;43277;52.672;6.984;2024-03-08T09:52:20;5.50;99.90
57434;DHT22;43277;52.672;6.984;2024-03-08T09:54:46;5.60;99.90
57434;DHT22;43277;52.672;6.984;2024-03-08T09:57:11;5.70;99.90
57434;DHT22;43277;52.672;6.984;2024-03-08T09:59:37;5.80;99.90
57434;DHT22;43277;52.672;6.984;2024-03-08T10:02:14;6.00;99.90
57434;DHT22;43277;52.672;6.984;2024-03-08T10:04:40;6.10;99.90
57434;DHT22;43277;52.672;6.984;2024-03-08T10:07:11;6.20;99.90
57434;DHT22;43277;52.672;6.984;2024-03-08T10:09:38;6.40;99.90
57434;DHT22;43277;52.672;6.984;2024-03-08T10:12:04;6.50;99.90
57434;DHT22;43277;52.672;6.984;2024-03-08T10:14:30;6.60;99.90
57434;DHT22;43277;52.672;6.984;2024-03-08T10:16:57;6.70;99.90
57434;DHT22;43277;52.672;6.984;2024-03-08T10:19:26;6.70;99.90
57434;DHT22;43277;52.672;6.984;2024-03-08T10:21:52;6.90;99.90
57434;DHT22;43277;52.672;6.984;2024-03-08T10:24:19;7.10;99.90
57434;DHT22;43277;52.672;6.984;2024-03-08T10:26:45;7.10;99.90
57434;DHT22;43277;52.672;6.984;2024-03-08T10:29:12;7.10;99.90
57434;DHT22;43277;52.672;6.984;2024-03-08T10:31:43;7.30;99.90
57434;DHT22;43277;52.672;6.984;2024-03-08T10:34:10;7.50;99.90
57434;DHT22;43277;52.672;6.984;2024-03-08T10:36:36;7.60;99.90
57434;DHT22;43277;52.672;6.984;2024-03-08T10:39:21;7.70;99.90
57434;DHT22;43277;52.672;6.984;2024-03-08T10:41:52;7.90;99.90
57434;DHT22;43277;52.672;6.984;2024-03-08T10:46:55;8.30;99.90
57434;DHT22;43277;52.672;6.984;2024-03-08T10:49:32;8.40;99.90
57434;DHT22;43277;52.672;6.984;2024-03-08T10:52:05;8.50;99.90
57434;DHT22;43277;52.672;6.984;2024-03-08T10:54:34;8.70;99.90
57434;DHT22;43277;52.672;6.984;2024-03-08T10:57:05;8.80;99.90
57434;DHT22;43277;52.672;6.984;2024-03-08T10:59:31;8.80;99.90
57434;DHT22;43277;52.672;6.984;2024-03-08T11:01:59;8.80;99.90
57434;DHT22;43277;52.672;6.984;2024-03-08T11:04:25;8.90;99.90
57434;DHT22;43277;52.672;6.984;2024-03-08T11:06:51;8.90;99.90
57434;DHT22;43277;52.672;6.984;2024-03-08T11:09:31;9.00;99.90
57434;DHT22;43277;52.672;6.984;2024-03-08T11:12:28;9.10;99.90
57434;DHT22;43277;52.672;6.984;2024-03-08T11:15:14;9.20;99.90
57434;DHT22;43277;52.672;6.984;2024-03-08T11:17:40;9.30;99.90
57434;DHT22;43277;52.672;6.984;2024-03-08T11:20:10;9.50;99.90
57434;DHT22;43277;52.672;6.984;2024-03-08T11:22:41;9.60;99.90
57434;DHT22;43277;52.672;6.984;2024-03-08T11:25:33;9.70;99.90
57434;DHT22;43277;52.672;6.984;2024-03-08T11:28:18;9.80;99.90
57434;DHT22;43277;52.672;6.984;2024-03-08T11:33:28;10.20;99.90
57434;DHT22;43277;52.672;6.984;2024-03-08T11:36:09;10.20;99.90
57434;DHT22;43277;52.672;6.984;2024-03-08T11:38:46;10.30;99.90
57434;DHT22;43277;52.672;6.984;2024-03-08T11:41:18;10.30;99.90
57434;DHT22;43277;52.672;6.984;2024-03-08T11:43:49;10.40;99.80
57434;DHT22;43277;52.672;6.984;2024-03-08T11:46:16;10.40;99.90
57434;DHT22;43277;52.672;6.984;2024-03-08T11:48:42;10.50;99.90
57434;DHT22;43277;52.672;6.984;2024-03-08T11:51:12;10.80;99.20
57434;DHT22;43277;52.672;6.984;2024-03-08T11:53:39;10.80;99.30
57434;DHT22;43277;52.672;6.984;2024-03-08T11:56:13;10.80;99.90
57434;DHT22;43277;52.672;6.984;2024-03-08T11:58:39;11.00;99.60
57434;DHT22;43277;52.672;6.984;2024-03-08T12:01:09;11.20;99.70
57434;DHT22;43277;52.672;6.984;2024-03-08T12:03:40;11.40;99.00
57434;DHT22;43277;52.672;6.984;2024-03-08T12:06:12;11.60;97.90
57434;DHT22;43277;52.672;6.984;2024-03-08T12:08:43;11.70;95.80
57434;DHT22;43277;52.672;6.984;2024-03-08T12:11:09;11.60;97.20
57434;DHT22;43277;52.672;6.984;2024-03-08T12:13:35;11.60;97.90
57434;DHT22;43277;52.672;6.984;2024-03-08T12:16:04;11.70;97.70
57434;DHT22;43277;52.672;6.984;2024-03-08T12:18:37;11.90;97.20
57434;DHT22;43277;52.672;6.984;2024-03-08T12:21:11;12.10;97.80
57434;DHT22;43277;52.672;6.984;2024-03-08T12:23:39;12.20;97.20
57434;DHT22;43277;52.672;6.984;2024-03-08T12:26:15;12.10;96.30
57434;DHT22;43277;52.672;6.984;2024-03-08T12:28:42;12.00;95.00
57434;DHT22;43277;52.672;6.984;2024-03-08T12:31:12;11.70;95.20
57434;DHT22;43277;52.672;6.984;2024-03-08T12:33:48;11.50;95.80
57434;DHT22;43277;52.672;6.984;2024-03-08T12:36:15;11.30;96.20
57434;DHT22;43277;52.672;6.984;2024-03-08T12:38:47;11.10;96.80
57434;DHT22;43277;52.672;6.984;2024-03-08T12:41:16;11.00;97.10
57434;DHT22;43277;52.672;6.984;2024-03-08T12:43:43;10.90;97.30
57434;DHT22;43277;52.672;6.984;2024-03-08T12:46:18;10.90;97.30
57434;DHT22;43277;52.672;6.984;2024-03-08T12:48:48;11.00;96.60
57434;DHT22;43277;52.672;6.984;2024-03-08T12:51:14;10.80;96.60
57434;DHT22;43277;52.672;6.984;2024-03-08T12:53:44;10.70;97.10
57434;DHT22;43277;52.672;6.984;2024-03-08T12:56:11;10.60;97.20
57434;DHT22;43277;52.672;6.984;2024-03-08T12:58:37;10.50;97.30
57434;DHT22;43277;52.672;6.984;2024-03-08T13:01:04;10.60;98.10
57434;DHT22;43277;52.672;6.984;2024-03-08T13:03:36;10.50;98.90
57434;DHT22;43277;52.672;6.984;2024-03-08T13:06:05;10.60;98.30
57434;DHT22;43277;52.672;6.984;2024-03-08T13:08:36;10.60;98.60
57434;DHT22;43277;52.672;6.984;2024-03-08T13:11:05;10.70;98.40
57434;DHT22;43277;52.672;6.984;2024-03-08T13:13:32;10.80;98.20
57434;DHT22;43277;52.672;6.984;2024-03-08T13:16:01;10.80;98.40
57434;DHT22;43277;52.672;6.984;2024-03-08T13:18:27;10.80;98.10
57434;DHT22;43277;52.672;6.984;2024-03-08T13:20:54;10.80;97.30
57434;DHT22;43277;52.672;6.984;2024-03-08T13:23:20;10.80;97.10
57434;DHT22;43277;52.672;6.984;2024-03-08T13:25:46;10.80;97.10
57434;DHT22;43277;52.672;6.984;2024-03-08T13:28:15;10.80;96.90
57434;DHT22;43277;52.672;6.984;2024-03-08T13:30:42;10.80;98.10
57434;DHT22;43277;52.672;6.984;2024-03-08T13:33:09;10.80;97.50
57434;DHT22;43277;52.672;6.984;2024-03-08T13:35:35;10.90;97.40
57434;DHT22;43277;52.672;6.984;2024-03-08T13:38:00;11.10;96.60
57434;DHT22;43277;52.672;6.984;2024-03-08T13:40:29;11.20;96.80
57434;DHT22;43277;52.672;6.984;2024-03-08T13:42:56;11.70;96.00
57434;DHT22;43277;52.672;6.984;2024-03-08T13:45:21;12.40;93.50
57434;DHT22;43277;52.672;6.984;2024-03-08T13:47:49;12.90;92.70
57434;DHT22;43277;52.672;6.984;2024-03-08T13:50:17;13.30;91.70
57434;DHT22;43277;52.672;6.984;2024-03-08T13:52:49;13.80;90.00
57434;DHT22;43277;52.672;6.984;2024-03-08T13:55:19;13.70;89.80
57434;DHT22;43277;52.672;6.984;2024-03-08T13:57:45;13.40;90.90
57434;DHT22;43277;52.672;6.984;2024-03-08T14:00:12;13.00;91.80
57434;DHT22;43277;52.672;6.984;2024-03-08T14:02:38;12.90;91.60
57434;DHT22;43277;52.672;6.984;2024-03-08T14:05:06;13.00;90.60
57434;DHT22;43277;52.672;6.984;2024-03-08T14:07:34;13.60;90.60
57434;DHT22;43277;52.672;6.984;2024-03-08T14:10:00;14.30;87.20
57434;DHT22;43277;52.672;6.984;2024-03-08T14:12:26;14.80;83.70
57434;DHT22;43277;52.672;6.984;2024-03-08T14:14:53;15.30;81.70
57434;DHT22;43277;52.672;6.984;2024-03-08T14:17:18;15.70;76.90
57434;DHT22;43277;52.672;6.984;2024-03-08T14:19:44;16.10;76.00
57434;DHT22;43277;52.672;6.984;2024-03-08T14:22:10;16.40;72.80
57434;DHT22;43277;52.672;6.984;2024-03-08T14:24:42;16.60;71.10
57434;DHT22;43277;52.672;6.984;2024-03-08T14:27:09;16.80;69.60
57434;DHT22;43277;52.672;6.984;2024-03-08T14:29:35;17.10;70.00
57434;DHT22;43277;52.672;6.984;2024-03-08T14:32:01;17.60;69.00
57434;DHT22;43277;52.672;6.984;2024-03-08T14:34:28;18.00;66.40
57434;DHT22;43277;52.672;6.984;2024-03-08T14:36:59;18.40;65.00
57434;DHT22;43277;52.672;6.984;2024-03-08T14:39:25;18.80;65.60
57434;DHT22;43277;52.672;6.984;2024-03-08T14:41:55;19.10;61.30
57434;DHT22;43277;52.672;6.984;2024-03-08T14:44:21;19.10;58.20
57434;DHT22;43277;52.672;6.984;2024-03-08T14:47:00;19.00;58.40
57434;DHT22;43277;52.672;6.984;2024-03-08T14:49:26;19.10;59.30
57434;DHT22;43277;52.672;6.984;2024-03-08T14:51:54;19.30;58.50
57434;DHT22;43277;52.672;6.984;2024-03-08T14:54:20;19.10;56.00
57434;DHT22;43277;52.672;6.984;2024-03-08T14:56:48;19.00;56.20
57434;DHT22;43277;52.672;6.984;2024-03-08T14:59:20;19.00;56.80
57434;DHT22;43277;52.672;6.984;2024-03-08T15:01:46;19.10;57.60
57434;DHT22;43277;52.672;6.984;2024-03-08T15:04:11;19.30;56.20
57434;DHT22;43277;52.672;6.984;2024-03-08T15:06:38;19.50;57.10
57434;DHT22;43277;52.672;6.984;2024-03-08T15:09:04;19.50;55.40
57434;DHT22;43277;52.672;6.984;2024-03-08T15:11:48;19.50;55.50
57434;DHT22;43277;52.672;6.984;2024-03-08T15:14:16;19.30;55.40
57434;DHT22;43277;52.672;6.984;2024-03-08T15:16:44;19.10;54.40
57434;DHT22;43277;52.672;6.984;2024-03-08T15:19:10;18.90;55.00
57434;DHT22;43277;52.672;6.984;2024-03-08T15:21:37;18.90;54.70
57434;DHT22;43277;52.672;6.984;2024-03-08T15:24:03;18.70;55.10
57434;DHT22;43277;52.672;6.984;2024-03-08T15:26:30;18.70;55.80
57434;DHT22;43277;52.672;6.984;2024-03-08T15:28:57;18.80;54.60
57434;DHT22;43277;52.672;6.984;2024-03-08T15:31:23;18.50;54.60
57434;DHT22;43277;52.672;6.984;2024-03-08T15:33:51;18.30;54.30
57434;DHT22;43277;52.672;6.984;2024-03-08T15:36:24;17.90;57.30
57434;DHT22;43277;52.672;6.984;2024-03-08T15:38:53;17.90;55.30
57434;DHT22;43277;52.672;6.984;2024-03-08T15:41:19;17.60;55.80
57434;DHT22;43277;52.672;6.984;2024-03-08T15:43:46;17.30;56.40
57434;DHT22;43277;52.672;6.984;2024-03-08T15:46:12;17.10;56.70
57434;DHT22;43277;52.672;6.984;2024-03-08T15:48:38;16.90;57.20
57434;DHT22;43277;52.672;6.984;2024-03-08T15:51:08;16.60;58.40